sensor_id;sensor_type;location;lat;lon;timestamp;temperature;humidity
31735;DHT22;18313;48.518;9.124;2023-05-29T00:00:49;13.80;99.20
31735;DHT22;18313;48.518;9.124;2023-05-29T00:03:18;13.80;99.90
31735;DHT22;18313;48.518;9.124;2023-05-29T00:05:46;13.70;99.90
31735;DHT22;18313;48.518;9.124;2023-05-29T00:08:13;13.60;99.90
31735;DHT22;18313;48.518;9.124;2023-05-29T00:10:40;13.50;99.90
31735;DHT22;18313;48.518;9.124;2023-05-29T00:13:07;13.50;99.90
31735;DHT22;18313;48.518;9.124;2023-05-29T00:15:34;13.60;99.90
31735;DHT22;18313;48.518;9.124;2023-05-29T00:18:02;13.70;99.90
31735;DHT22;18313;48.518;9.124;2023-05-29T00:20:29;13.60;99.90
31735;DHT22;18313;48.518;9.124;2023-05-29T00:22:56;13.50;99.90
31735;DHT22;18313;48.518;9.124;2023-05-29T00:25:24;13.50;99.90
31735;DHT22;18313;48.518;9.124;2023-05-29T00:27:51;13.40;99.90
31735;DHT22;18313;48.518;9.124;2023-05-29T00:30:18;13.40;99.90
31735;DHT22;18313;48.518;9.124;2023-05-29T00:32:45;13.40;99.90
31735;DHT22;18313;48.518;9.124;2023-05-29T00:35:13;13.30;99.90
31735;DHT22;18313;48.518;9.124;2023-05-29T00:37:40;13.20;99.90
31735;DHT22;18313;48.518;9.124;2023-05-29T00:40:08;13.10;99.90
31735;DHT22;18313;48.518;9.124;2023-05-29T00:42:35;13.00;99.90
31735;DHT22;18313;48.518;9.124;2023-05-29T00:45:03;12.90;99.90
31735;DHT22;18313;48.518;9.124;2023-05-29T00:47:30;12.80;99.90
31735;DHT22;18313;48.518;9.124;2023-05-29T00:49:57;12.80;99.90
31735;DHT22;18313;48.518;9.124;2023-05-29T00:52:26;12.80;99.90
31735;DHT22;18313;48.518;9.124;2023-05-29T00:54:54;12.70;99.90
31735;DHT22;18313;48.518;9.124;2023-05-29T00:57:22;12.70;99.90
31735;DHT22;18313;48.518;9.124;2023-05-29T00:59:50;12.60;99.90
31735;DHT22;18313;48.518;9.124;2023-05-29T01:02:17;12.50;99.90
31735;DHT22;18313;48.518;9.124;2023-05-29T01:04:45;12.50;99.90
31735;DHT22;18313;48.518;9.124;2023-05-29T01:07:12;12.50;99.90
31735;DHT22;18313;48.518;9.124;2023-05-29T01:09:41;12.40;99.90
31735;DHT22;18313;48.518;9.124;2023-05-29T01:15:39;12.30;99.90
31735;DHT22;18313;48.518;9.124;2023-05-29T01:18:25;12.30;99.90
31735;DHT22;18313;48.518;9.124;2023-05-29T01:26:34;12.20;99.90
31735;DHT22;18313;48.518;9.124;2023-05-29T01:29:04;12.10;99.90
31735;DHT22;18313;48.518;9.124;2023-05-29T01:31:34;12.10;99.90
31735;DHT22;18313;48.518;9.124;2023-05-29T01:34:03;12.10;99.90
31735;DHT22;18313;48.518;9.124;2023-05-29T01:36:30;12.10;99.90
31735;DHT22;18313;48.518;9.124;2023-05-29T01:38:59;12.10;99.90
31735;DHT22;18313;48.518;9.124;2023-05-29T01:41:29;12.00;99.90
31735;DHT22;18313;48.518;9.124;2023-05-29T01:43:57;12.00;99.90
31735;DHT22;18313;48.518;9.124;2023-05-29T01:46:26;11.90;99.90
31735;DHT22;18313;48.518;9.124;2023-05-29T01:48:54;11.90;99.90
31735;DHT22;18313;48.518;9.124;2023-05-29T01:51:22;11.80;99.90
31735;DHT22;18313;48.518;9.124;2023-05-29T01:53:49;11.80;99.90
31735;DHT22;18313;48.518;9.124;2023-05-29T01:56:17;11.80;99.90
31735;DHT22;18313;48.518;9.124;2023-05-29T01:58:45;11.70;99.90
31735;DHT22;18313;48.518;9.124;2023-05-29T02:01:12;11.70;99.90
31735;DHT22;18313;48.518;9.124;2023-05-29T02:03:39;11.50;99.90
31735;DHT22;18313;48.518;9.124;2023-05-29T02:06:07;11.60;99.90
31735;DHT22;18313;48.518;9.124;2023-05-29T02:08:34;11.60;99.90
31735;DHT22;18313;48.518;9.124;2023-05-29T02:11:01;11.50;99.90
31735;DHT22;18313;48.518;9.124;2023-05-29T02:13:28;11.50;99.90
31735;DHT22;18313;48.518;9.124;2023-05-29T02:15:55;11.50;99.90
31735;DHT22;18313;48.518;9.124;2023-05-29T02:18:23;11.40;99.90
31735;DHT22;18313;48.518;9.124;2023-05-29T02:20:50;11.30;99.90
31735;DHT22;18313;48.518;9.124;2023-05-29T02:23:17;11.30;99.90
31735;DHT22;18313;48.518;9.124;2023-05-29T02:25:46;11.20;99.90
31735;DHT22;18313;48.518;9.124;2023-05-29T02:28:13;11.20;99.90
31735;DHT22;18313;48.518;9.124;2023-05-29T02:30:40;11.10;99.90
31735;DHT22;18313;48.518;9.124;2023-05-29T02:33:07;11.10;99.90
31735;DHT22;18313;48.518;9.124;2023-05-29T02:35:35;11.10;99.90
31735;DHT22;18313;48.518;9.124;2023-05-29T02:38:02;11.10;99.90
31735;DHT22;18313;48.518;9.124;2023-05-29T02:40:30;11.00;99.90
31735;DHT22;18313;48.518;9.124;2023-05-29T02:42:57;11.10;99.90
31735;DHT22;18313;48.518;9.124;2023-05-29T02:45:27;11.10;99.90
31735;DHT22;18313;48.518;9.124;2023-05-29T02:47:54;11.10;99.90
31735;DHT22;18313;48.518;9.124;2023-05-29T02:50:21;11.00;99.90
31735;DHT22;18313;48.518;9.124;2023-05-29T02:52:49;11.00;99.90
31735;DHT22;18313;48.518;9.124;2023-05-29T02:55:16;10.90;99.90
31735;DHT22;18313;48.518;9.124;2023-05-29T02:57:43;10.90;99.90
31735;DHT22;18313;48.518;9.124;2023-05-29T03:00:11;10.90;99.90
31735;DHT22;18313;48.518;9.124;2023-05-29T03:02:38;10.80;99.90
31735;DHT22;18313;48.518;9.124;2023-05-29T03:05:06;10.70;99.90
31735;DHT22;18313;48.518;9.124;2023-05-29T03:07:34;10.70;99.90
31735;DHT22;18313;48.518;9.124;2023-05-29T03:10:01;10.70;99.90
31735;DHT22;18313;48.518;9.124;2023-05-29T03:12:30;10.60;99.90
31735;DHT22;18313;48.518;9.124;2023-05-29T03:14:57;10.60;99.90
31735;DHT22;18313;48.518;9.124;2023-05-29T03:17:25;10.50;99.90
31735;DHT22;18313;48.518;9.124;2023-05-29T03:19:53;10.50;99.90
31735;DHT22;18313;48.518;9.124;2023-05-29T03:22:20;10.50;99.90
31735;DHT22;18313;48.518;9.124;2023-05-29T03:24:47;10.40;99.90
31735;DHT22;18313;48.518;9.124;2023-05-29T03:27:14;10.50;99.90
31735;DHT22;18313;48.518;9.124;2023-05-29T03:29:41;10.40;99.90
31735;DHT22;18313;48.518;9.124;2023-05-29T03:32:09;10.40;99.90
31735;DHT22;18313;48.518;9.124;2023-05-29T03:34:36;10.40;99.90
31735;DHT22;18313;48.518;9.124;2023-05-29T03:37:03;10.40;99.90
31735;DHT22;18313;48.518;9.124;2023-05-29T03:39:31;10.40;99.90
31735;DHT22;18313;48.518;9.124;2023-05-29T03:41:58;10.40;99.90
31735;DHT22;18313;48.518;9.124;2023-05-29T03:44:26;10.40;99.90
31735;DHT22;18313;48.518;9.124;2023-05-29T03:46:53;10.40;99.90
31735;DHT22;18313;48.518;9.124;2023-05-29T03:49:20;10.40;99.90
31735;DHT22;18313;48.518;9.124;2023-05-29T03:51:48;10.40;99.90
31735;DHT22;18313;48.518;9.124;2023-05-29T03:54:15;10.40;99.90
31735;DHT22;18313;48.518;9.124;2023-05-29T03:56:43;10.40;99.90
31735;DHT22;18313;48.518;9.124;2023-05-29T03:59:10;10.30;99.90
31735;DHT22;18313;48.518;9.124;2023-05-29T04:01:37;10.30;99.90
31735;DHT22;18313;48.518;9.124;2023-05-29T04:04:05;10.40;99.90
31735;DHT22;18313;48.518;9.124;2023-05-29T04:06:32;10.40;99.90
31735;DHT22;18313;48.518;9.124;2023-05-29T04:08:59;10.40;99.90
31735;DHT22;18313;48.518;9.124;2023-05-29T04:11:27;10.50;99.90
31735;DHT22;18313;48.518;9.124;2023-05-29T04:13:54;10.60;99.90
31735;DHT22;18313;48.518;9.124;2023-05-29T04:16:21;10.60;99.90
31735;DHT22;18313;48.518;9.124;2023-05-29T04:18:48;10.60;99.90
31735;DHT22;18313;48.518;9.124;2023-05-29T04:21:16;10.70;99.90
31735;DHT22;18313;48.518;9.124;2023-05-29T04:23:43;10.70;99.90
31735;DHT22;18313;48.518;9.124;2023-05-29T04:26:10;10.70;99.90
31735;DHT22;18313;48.518;9.124;2023-05-29T04:28:37;10.80;99.90
31735;DHT22;18313;48.518;9.124;2023-05-29T04:31:04;10.80;99.90
31735;DHT22;18313;48.518;9.124;2023-05-29T04:33:32;10.90;99.90
31735;DHT22;18313;48.518;9.124;2023-05-29T04:35:59;11.00;99.90
31735;DHT22;18313;48.518;9.124;2023-05-29T04:38:30;11.10;99.90
31735;DHT22;18313;48.518;9.124;2023-05-29T04:40:58;11.30;99.90
31735;DHT22;18313;48.518;9.124;2023-05-29T04:43:26;11.40;99.90
31735;DHT22;18313;48.518;9.124;2023-05-29T04:45:53;11.60;99.90
31735;DHT22;18313;48.518;9.124;2023-05-29T04:48:20;11.80;99.90
31735;DHT22;18313;48.518;9.124;2023-05-29T04:50:47;12.00;99.90
31735;DHT22;18313;48.518;9.124;2023-05-29T04:53:15;12.30;99.90
31735;DHT22;18313;48.518;9.124;2023-05-29T04:55:43;12.40;99.90
31735;DHT22;18313;48.518;9.124;2023-05-29T04:58:10;12.60;99.90
31735;DHT22;18313;48.518;9.124;2023-05-29T05:00:39;12.70;99.90
31735;DHT22;18313;48.518;9.124;2023-05-29T05:03:06;12.90;99.90
31735;DHT22;18313;48.518;9.124;2023-05-29T05:05:33;13.00;99.90
31735;DHT22;18313;48.518;9.124;2023-05-29T05:08:01;13.10;99.90
31735;DHT22;18313;48.518;9.124;2023-05-29T05:10:28;13.20;99.90
31735;DHT22;18313;48.518;9.124;2023-05-29T05:12:55;13.30;99.90
31735;DHT22;18313;48.518;9.124;2023-05-29T05:15:22;13.40;99.90
31735;DHT22;18313;48.518;9.124;2023-05-29T05:17:49;13.40;99.90
31735;DHT22;18313;48.518;9.124;2023-05-29T05:20:17;13.50;99.90
31735;DHT22;18313;48.518;9.124;2023-05-29T05:22:44;13.60;99.90
31735;DHT22;18313;48.518;9.124;2023-05-29T05:25:11;13.70;99.90
31735;DHT22;18313;48.518;9.124;2023-05-29T05:27:39;13.80;99.90
31735;DHT22;18313;48.518;9.124;2023-05-29T05:30:07;14.00;99.90
31735;DHT22;18313;48.518;9.124;2023-05-29T05:32:34;14.10;99.90
31735;DHT22;18313;48.518;9.124;2023-05-29T05:35:02;14.20;99.90
31735;DHT22;18313;48.518;9.124;2023-05-29T05:37:30;14.20;99.90
31735;DHT22;18313;48.518;9.124;2023-05-29T05:39:57;14.30;99.90
31735;DHT22;18313;48.518;9.124;2023-05-29T05:42:25;14.50;99.90
31735;DHT22;18313;48.518;9.124;2023-05-29T05:44:52;14.60;99.90
31735;DHT22;18313;48.518;9.124;2023-05-29T05:47:19;14.80;99.90
31735;DHT22;18313;48.518;9.124;2023-05-29T05:49:46;14.90;99.90
31735;DHT22;18313;48.518;9.124;2023-05-29T05:52:14;15.00;99.90
31735;DHT22;18313;48.518;9.124;2023-05-29T05:54:41;14.90;99.90
31735;DHT22;18313;48.518;9.124;2023-05-29T05:57:08;14.90;99.90
31735;DHT22;18313;48.518;9.124;2023-05-29T05:59:35;15.10;99.90
31735;DHT22;18313;48.518;9.124;2023-05-29T06:02:02;15.30;99.90
31735;DHT22;18313;48.518;9.124;2023-05-29T06:04:34;15.50;99.90
31735;DHT22;18313;48.518;9.124;2023-05-29T06:07:02;15.70;99.90
31735;DHT22;18313;48.518;9.124;2023-05-29T06:09:29;15.90;99.90
31735;DHT22;18313;48.518;9.124;2023-05-29T06:11:56;16.10;99.90
31735;DHT22;18313;48.518;9.124;2023-05-29T06:14:23;16.30;99.90
31735;DHT22;18313;48.518;9.124;2023-05-29T06:16:50;16.40;99.90
31735;DHT22;18313;48.518;9.124;2023-05-29T06:19:18;16.60;99.90
31735;DHT22;18313;48.518;9.124;2023-05-29T06:21:45;16.70;99.90
31735;DHT22;18313;48.518;9.124;2023-05-29T06:24:12;16.70;99.90
31735;DHT22;18313;48.518;9.124;2023-05-29T06:26:39;16.70;99.90
31735;DHT22;18313;48.518;9.124;2023-05-29T06:29:06;16.60;99.90
31735;DHT22;18313;48.518;9.124;2023-05-29T06:31:33;16.60;99.90
31735;DHT22;18313;48.518;9.124;2023-05-29T06:34:00;16.60;99.90
31735;DHT22;18313;48.518;9.124;2023-05-29T06:36:27;16.60;99.90
31735;DHT22;18313;48.518;9.124;2023-05-29T06:38:54;16.70;99.90
31735;DHT22;18313;48.518;9.124;2023-05-29T06:41:22;16.80;99.90
31735;DHT22;18313;48.518;9.124;2023-05-29T06:43:49;16.90;99.90
31735;DHT22;18313;48.518;9.124;2023-05-29T06:46:16;16.90;99.90
31735;DHT22;18313;48.518;9.124;2023-05-29T06:48:43;17.00;99.90
31735;DHT22;18313;48.518;9.124;2023-05-29T06:51:11;17.10;99.90
31735;DHT22;18313;48.518;9.124;2023-05-29T06:53:39;17.20;99.90
31735;DHT22;18313;48.518;9.124;2023-05-29T06:56:06;17.30;99.90
31735;DHT22;18313;48.518;9.124;2023-05-29T06:58:33;17.30;99.90
31735;DHT22;18313;48.518;9.124;2023-05-29T07:01:00;17.40;99.90
31735;DHT22;18313;48.518;9.124;2023-05-29T07:03:32;17.50;99.90
31735;DHT22;18313;48.518;9.124;2023-05-29T07:06:00;17.60;99.90
31735;DHT22;18313;48.518;9.124;2023-05-29T07:08:27;17.70;99.90
31735;DHT22;18313;48.518;9.124;2023-05-29T07:10:55;17.70;99.90
31735;DHT22;18313;48.518;9.124;2023-05-29T07:13:25;17.80;99.90
31735;DHT22;18313;48.518;9.124;2023-05-29T07:15:52;17.90;99.90
31735;DHT22;18313;48.518;9.124;2023-05-29T07:18:19;18.00;99.90
31735;DHT22;18313;48.518;9.124;2023-05-29T07:20:47;17.90;99.90
31735;DHT22;18313;48.518;9.124;2023-05-29T07:23:14;17.90;99.90
31735;DHT22;18313;48.518;9.124;2023-05-29T07:25:41;18.10;99.90
31735;DHT22;18313;48.518;9.124;2023-05-29T07:28:08;18.40;99.90
31735;DHT22;18313;48.518;9.124;2023-05-29T07:30:47;18.50;99.90
31735;DHT22;18313;48.518;9.124;2023-05-29T07:33:15;18.70;99.90
31735;DHT22;18313;48.518;9.124;2023-05-29T07:35:42;18.80;99.90
31735;DHT22;18313;48.518;9.124;2023-05-29T07:38:09;19.00;99.90
31735;DHT22;18313;48.518;9.124;2023-05-29T07:40:36;19.10;99.90
31735;DHT22;18313;48.518;9.124;2023-05-29T07:43:05;19.30;99.90
31735;DHT22;18313;48.518;9.124;2023-05-29T07:45:32;19.50;99.90
31735;DHT22;18313;48.518;9.124;2023-05-29T07:47:59;19.50;99.90
31735;DHT22;18313;48.518;9.124;2023-05-29T07:50:26;19.50;99.30
31735;DHT22;18313;48.518;9.124;2023-05-29T07:52:53;19.60;99.50
31735;DHT22;18313;48.518;9.124;2023-05-29T07:55:23;19.80;99.40
31735;DHT22;18313;48.518;9.124;2023-05-29T07:57:50;19.90;98.60
31735;DHT22;18313;48.518;9.124;2023-05-29T08:00:17;20.00;98.00
31735;DHT22;18313;48.518;9.124;2023-05-29T08:02:44;20.30;98.10
31735;DHT22;18313;48.518;9.124;2023-05-29T08:05:13;20.60;97.90
31735;DHT22;18313;48.518;9.124;2023-05-29T08:07:40;20.70;96.90
31735;DHT22;18313;48.518;9.124;2023-05-29T08:10:08;21.00;97.90
31735;DHT22;18313;48.518;9.124;2023-05-29T08:12:35;21.10;96.90
31735;DHT22;18313;48.518;9.124;2023-05-29T08:15:03;21.20;95.70
31735;DHT22;18313;48.518;9.124;2023-05-29T08:17:30;21.20;96.40
31735;DHT22;18313;48.518;9.124;2023-05-29T08:19:57;21.20;96.00
31735;DHT22;18313;48.518;9.124;2023-05-29T08:22:29;21.30;96.80
31735;DHT22;18313;48.518;9.124;2023-05-29T08:24:57;21.40;96.30
31735;DHT22;18313;48.518;9.124;2023-05-29T08:27:24;21.50;96.20
31735;DHT22;18313;48.518;9.124;2023-05-29T08:29:51;21.60;96.60
31735;DHT22;18313;48.518;9.124;2023-05-29T08:32:18;22.00;96.30
31735;DHT22;18313;48.518;9.124;2023-05-29T08:34:45;22.10;96.20
31735;DHT22;18313;48.518;9.124;2023-05-29T08:37:13;22.40;96.80
31735;DHT22;18313;48.518;9.124;2023-05-29T08:39:40;22.70;96.00
31735;DHT22;18313;48.518;9.124;2023-05-29T08:42:13;22.70;95.30
31735;DHT22;18313;48.518;9.124;2023-05-29T08:44:45;22.70;95.50
31735;DHT22;18313;48.518;9.124;2023-05-29T08:47:14;22.80;95.40
31735;DHT22;18313;48.518;9.124;2023-05-29T08:49:52;22.70;95.70
31735;DHT22;18313;48.518;9.124;2023-05-29T08:52:23;22.90;94.90
31735;DHT22;18313;48.518;9.124;2023-05-29T08:54:53;22.90;93.80
31735;DHT22;18313;48.518;9.124;2023-05-29T08:57:21;23.10;94.20
31735;DHT22;18313;48.518;9.124;2023-05-29T08:59:51;23.20;92.80
31735;DHT22;18313;48.518;9.124;2023-05-29T09:02:21;23.00;92.80
31735;DHT22;18313;48.518;9.124;2023-05-29T09:04:48;23.10;93.40
31735;DHT22;18313;48.518;9.124;2023-05-29T09:07:16;23.20;93.00
31735;DHT22;18313;48.518;9.124;2023-05-29T09:09:48;23.30;93.50
31735;DHT22;18313;48.518;9.124;2023-05-29T09:12:16;23.70;92.70
31735;DHT22;18313;48.518;9.124;2023-05-29T09:14:45;24.00;91.80
31735;DHT22;18313;48.518;9.124;2023-05-29T09:17:12;24.20;92.40
31735;DHT22;18313;48.518;9.124;2023-05-29T09:19:40;24.20;91.80
31735;DHT22;18313;48.518;9.124;2023-05-29T09:22:10;23.90;91.80
31735;DHT22;18313;48.518;9.124;2023-05-29T09:24:38;23.90;92.10
31735;DHT22;18313;48.518;9.124;2023-05-29T09:27:06;24.10;91.30
31735;DHT22;18313;48.518;9.124;2023-05-29T09:29:42;24.20;91.70
31735;DHT22;18313;48.518;9.124;2023-05-29T09:32:13;24.20;91.30
31735;DHT22;18313;48.518;9.124;2023-05-29T09:34:42;24.30;90.60
31735;DHT22;18313;48.518;9.124;2023-05-29T09:37:09;24.20;90.20
31735;DHT22;18313;48.518;9.124;2023-05-29T09:39:47;24.20;91.20
31735;DHT22;18313;48.518;9.124;2023-05-29T09:42:15;24.20;90.90
31735;DHT22;18313;48.518;9.124;2023-05-29T09:44:48;24.40;90.20
31735;DHT22;18313;48.518;9.124;2023-05-29T09:47:18;24.60;91.10
31735;DHT22;18313;48.518;9.124;2023-05-29T09:49:46;25.00;89.90
31735;DHT22;18313;48.518;9.124;2023-05-29T09:52:14;25.30;89.80
31735;DHT22;18313;48.518;9.124;2023-05-29T09:54:43;25.20;86.60
31735;DHT22;18313;48.518;9.124;2023-05-29T09:57:14;24.90;87.30
31735;DHT22;18313;48.518;9.124;2023-05-29T09:59:43;24.60;87.30
31735;DHT22;18313;48.518;9.124;2023-05-29T10:02:18;24.60;87.30
31735;DHT22;18313;48.518;9.124;2023-05-29T10:04:46;24.50;86.00
31735;DHT22;18313;48.518;9.124;2023-05-29T10:07:25;24.50;89.20
31735;DHT22;18313;48.518;9.124;2023-05-29T10:09:59;25.20;90.20
31735;DHT22;18313;48.518;9.124;2023-05-29T10:12:28;25.80;88.80
31735;DHT22;18313;48.518;9.124;2023-05-29T10:14:59;25.60;85.30
31735;DHT22;18313;48.518;9.124;2023-05-29T10:17:34;25.50;84.30
31735;DHT22;18313;48.518;9.124;2023-05-29T10:20:05;25.40;85.40
31735;DHT22;18313;48.518;9.124;2023-05-29T10:22:34;25.50;85.90
31735;DHT22;18313;48.518;9.124;2023-05-29T10:25:03;25.70;86.30
31735;DHT22;18313;48.518;9.124;2023-05-29T10:27:31;25.50;84.50
31735;DHT22;18313;48.518;9.124;2023-05-29T10:30:04;25.70;83.60
31735;DHT22;18313;48.518;9.124;2023-05-29T10:32:58;25.60;82.40
31735;DHT22;18313;48.518;9.124;2023-05-29T10:38:15;25.40;85.00
31735;DHT22;18313;48.518;9.124;2023-05-29T10:40:44;25.20;83.50
31735;DHT22;18313;48.518;9.124;2023-05-29T10:43:37;25.40;84.20
31735;DHT22;18313;48.518;9.124;2023-05-29T10:46:06;25.50;82.80
31735;DHT22;18313;48.518;9.124;2023-05-29T10:48:37;25.60;82.10
31735;DHT22;18313;48.518;9.124;2023-05-29T10:51:08;25.60;81.70
31735;DHT22;18313;48.518;9.124;2023-05-29T10:53:35;25.50;82.70
31735;DHT22;18313;48.518;9.124;2023-05-29T10:56:15;25.80;82.30
31735;DHT22;18313;48.518;9.124;2023-05-29T10:58:52;25.80;79.20
31735;DHT22;18313;48.518;9.124;2023-05-29T11:01:24;25.60;81.20
31735;DHT22;18313;48.518;9.124;2023-05-29T11:04:24;25.50;82.20
31735;DHT22;18313;48.518;9.124;2023-05-29T11:06:44;25.70;81.30
31735;DHT22;18313;48.518;9.124;2023-05-29T11:09:36;25.60;80.80
31735;DHT22;18313;48.518;9.124;2023-05-29T11:12:24;25.50;80.80
31735;DHT22;18313;48.518;9.124;2023-05-29T11:20:08;25.60;78.90
31735;DHT22;18313;48.518;9.124;2023-05-29T11:25:27;25.70;78.30
31735;DHT22;18313;48.518;9.124;2023-05-29T11:27:54;25.80;80.00
31735;DHT22;18313;48.518;9.124;2023-05-29T11:30:22;26.00;78.40
31735;DHT22;18313;48.518;9.124;2023-05-29T11:32:49;26.50;78.70
31735;DHT22;18313;48.518;9.124;2023-05-29T11:35:21;26.80;77.40
31735;DHT22;18313;48.518;9.124;2023-05-29T11:37:49;26.80;74.90
31735;DHT22;18313;48.518;9.124;2023-05-29T11:40:18;27.00;75.70
31735;DHT22;18313;48.518;9.124;2023-05-29T11:42:46;27.20;75.00
31735;DHT22;18313;48.518;9.124;2023-05-29T11:45:19;27.00;74.10
31735;DHT22;18313;48.518;9.124;2023-05-29T11:48:02;26.60;72.10
31735;DHT22;18313;48.518;9.124;2023-05-29T11:50:31;26.30;73.80
31735;DHT22;18313;48.518;9.124;2023-05-29T11:52:59;26.10;70.80
31735;DHT22;18313;48.518;9.124;2023-05-29T11:55:27;26.20;71.70
31735;DHT22;18313;48.518;9.124;2023-05-29T11:57:59;26.20;75.00
31735;DHT22;18313;48.518;9.124;2023-05-29T12:00:34;26.60;75.00
31735;DHT22;18313;48.518;9.124;2023-05-29T12:03:04;27.10;74.60
31735;DHT22;18313;48.518;9.124;2023-05-29T12:05:32;27.50;73.90
31735;DHT22;18313;48.518;9.124;2023-05-29T12:07:59;27.50;71.80
31735;DHT22;18313;48.518;9.124;2023-05-29T12:10:28;27.40;73.20
31735;DHT22;18313;48.518;9.124;2023-05-29T12:12:59;27.40;72.50
31735;DHT22;18313;48.518;9.124;2023-05-29T12:15:28;27.20;69.70
31735;DHT22;18313;48.518;9.124;2023-05-29T12:17:55;26.70;71.30
31735;DHT22;18313;48.518;9.124;2023-05-29T12:20:24;26.30;70.10
31735;DHT22;18313;48.518;9.124;2023-05-29T12:23:00;26.30;71.40
31735;DHT22;18313;48.518;9.124;2023-05-29T12:25:30;26.20;69.00
31735;DHT22;18313;48.518;9.124;2023-05-29T12:27:57;26.10;70.30
31735;DHT22;18313;48.518;9.124;2023-05-29T12:30:25;26.20;69.00
31735;DHT22;18313;48.518;9.124;2023-05-29T12:32:55;26.60;69.20
31735;DHT22;18313;48.518;9.124;2023-05-29T12:35:25;26.70;68.20
31735;DHT22;18313;48.518;9.124;2023-05-29T12:38:04;26.50;70.90
31735;DHT22;18313;48.518;9.124;2023-05-29T12:40:32;26.70;69.70
31735;DHT22;18313;48.518;9.124;2023-05-29T12:43:06;27.00;69.50
31735;DHT22;18313;48.518;9.124;2023-05-29T12:45:37;27.20;67.00
31735;DHT22;18313;48.518;9.124;2023-05-29T12:48:05;27.40;69.30
31735;DHT22;18313;48.518;9.124;2023-05-29T12:50:35;27.50;67.20
31735;DHT22;18313;48.518;9.124;2023-05-29T12:53:06;27.60;68.40
31735;DHT22;18313;48.518;9.124;2023-05-29T12:55:39;27.60;67.90
31735;DHT22;18313;48.518;9.124;2023-05-29T12:58:08;27.70;67.50
31735;DHT22;18313;48.518;9.124;2023-05-29T13:00:37;28.00;67.60
31735;DHT22;18313;48.518;9.124;2023-05-29T13:03:08;28.30;66.80
31735;DHT22;18313;48.518;9.124;2023-05-29T13:05:36;28.40;67.40
31735;DHT22;18313;48.518;9.124;2023-05-29T13:08:03;28.70;66.60
31735;DHT22;18313;48.518;9.124;2023-05-29T13:10:35;27.70;63.50
31735;DHT22;18313;48.518;9.124;2023-05-29T13:13:02;27.30;67.40
31735;DHT22;18313;48.518;9.124;2023-05-29T13:15:30;27.50;66.40
31735;DHT22;18313;48.518;9.124;2023-05-29T13:18:00;27.20;65.90
31735;DHT22;18313;48.518;9.124;2023-05-29T13:20:27;27.40;64.90
31735;DHT22;18313;48.518;9.124;2023-05-29T13:22:54;27.60;67.20
31735;DHT22;18313;48.518;9.124;2023-05-29T13:25:22;28.00;63.90
31735;DHT22;18313;48.518;9.124;2023-05-29T13:27:51;28.20;62.00
31735;DHT22;18313;48.518;9.124;2023-05-29T13:30:19;27.90;64.30
31735;DHT22;18313;48.518;9.124;2023-05-29T13:32:46;27.80;63.60
31735;DHT22;18313;48.518;9.124;2023-05-29T13:35:13;28.10;60.60
31735;DHT22;18313;48.518;9.124;2023-05-29T13:37:40;28.10;60.30
31735;DHT22;18313;48.518;9.124;2023-05-29T13:40:09;28.00;61.30
31735;DHT22;18313;48.518;9.124;2023-05-29T13:42:36;27.90;60.20
31735;DHT22;18313;48.518;9.124;2023-05-29T13:45:06;28.00;60.30
31735;DHT22;18313;48.518;9.124;2023-05-29T13:47:35;27.60;61.10
31735;DHT22;18313;48.518;9.124;2023-05-29T13:50:03;27.70;60.60
31735;DHT22;18313;48.518;9.124;2023-05-29T13:52:30;27.80;62.60
31735;DHT22;18313;48.518;9.124;2023-05-29T13:54:57;28.10;62.10
31735;DHT22;18313;48.518;9.124;2023-05-29T13:57:33;28.00;62.30
31735;DHT22;18313;48.518;9.124;2023-05-29T14:00:00;27.90;60.50
31735;DHT22;18313;48.518;9.124;2023-05-29T14:02:27;27.90;60.20
31735;DHT22;18313;48.518;9.124;2023-05-29T14:04:54;27.80;60.50
31735;DHT22;18313;48.518;9.124;2023-05-29T14:07:21;27.80;61.10
31735;DHT22;18313;48.518;9.124;2023-05-29T14:09:48;28.00;61.00
31735;DHT22;18313;48.518;9.124;2023-05-29T14:12:15;28.50;64.50
31735;DHT22;18313;48.518;9.124;2023-05-29T14:14:42;28.80;66.00
31735;DHT22;18313;48.518;9.124;2023-05-29T14:17:09;29.00;59.30
31735;DHT22;18313;48.518;9.124;2023-05-29T14:19:38;28.70;58.30
31735;DHT22;18313;48.518;9.124;2023-05-29T14:22:05;28.20;60.20
31735;DHT22;18313;48.518;9.124;2023-05-29T14:24:31;28.20;60.80
31735;DHT22;18313;48.518;9.124;2023-05-29T14:26:59;28.10;59.90
31735;DHT22;18313;48.518;9.124;2023-05-29T14:29:26;28.20;56.60
31735;DHT22;18313;48.518;9.124;2023-05-29T14:31:53;28.10;58.50
31735;DHT22;18313;48.518;9.124;2023-05-29T14:34:20;28.30;59.00
31735;DHT22;18313;48.518;9.124;2023-05-29T14:36:48;28.60;60.10
31735;DHT22;18313;48.518;9.124;2023-05-29T14:39:17;28.50;58.70
31735;DHT22;18313;48.518;9.124;2023-05-29T14:41:44;28.40;59.10
31735;DHT22;18313;48.518;9.124;2023-05-29T14:44:12;28.50;57.10
31735;DHT22;18313;48.518;9.124;2023-05-29T14:46:39;28.30;57.70
31735;DHT22;18313;48.518;9.124;2023-05-29T14:49:07;27.60;59.30
31735;DHT22;18313;48.518;9.124;2023-05-29T14:51:34;27.70;58.10
31735;DHT22;18313;48.518;9.124;2023-05-29T14:54:03;27.90;58.80
31735;DHT22;18313;48.518;9.124;2023-05-29T14:56:30;28.10;58.50
31735;DHT22;18313;48.518;9.124;2023-05-29T14:58:57;28.40;58.30
31735;DHT22;18313;48.518;9.124;2023-05-29T15:01:24;28.60;59.80
31735;DHT22;18313;48.518;9.124;2023-05-29T15:03:52;28.60;58.60
31735;DHT22;18313;48.518;9.124;2023-05-29T15:06:19;28.70;56.30
31735;DHT22;18313;48.518;9.124;2023-05-29T15:08:48;28.40;56.30
31735;DHT22;18313;48.518;9.124;2023-05-29T15:11:15;28.40;59.30
31735;DHT22;18313;48.518;9.124;2023-05-29T15:13:44;28.70;57.00
31735;DHT22;18313;48.518;9.124;2023-05-29T15:16:11;28.70;56.50
31735;DHT22;18313;48.518;9.124;2023-05-29T15:18:38;28.50;58.00
31735;DHT22;18313;48.518;9.124;2023-05-29T15:21:06;28.30;57.80
31735;DHT22;18313;48.518;9.124;2023-05-29T15:23:33;27.60;57.00
31735;DHT22;18313;48.518;9.124;2023-05-29T15:26:06;27.20;59.30
31735;DHT22;18313;48.518;9.124;2023-05-29T15:28:33;27.10;58.40
31735;DHT22;18313;48.518;9.124;2023-05-29T15:31:00;27.40;60.00
31735;DHT22;18313;48.518;9.124;2023-05-29T15:33:27;28.00;60.50
31735;DHT22;18313;48.518;9.124;2023-05-29T15:35:57;28.40;59.20
31735;DHT22;18313;48.518;9.124;2023-05-29T15:38:24;28.40;57.30
31735;DHT22;18313;48.518;9.124;2023-05-29T15:40:51;28.50;58.10
31735;DHT22;18313;48.518;9.124;2023-05-29T15:43:18;28.60;58.40
31735;DHT22;18313;48.518;9.124;2023-05-29T15:45:45;28.60;57.50
31735;DHT22;18313;48.518;9.124;2023-05-29T15:48:13;28.50;56.30
31735;DHT22;18313;48.518;9.124;2023-05-29T15:50:40;28.20;58.90
31735;DHT22;18313;48.518;9.124;2023-05-29T15:53:07;28.20;57.40
31735;DHT22;18313;48.518;9.124;2023-05-29T15:55:34;28.10;57.10
31735;DHT22;18313;48.518;9.124;2023-05-29T15:58:01;28.20;58.10